Time;durP1;ratioP1;P1;durP2;ratioP2;P2;SDS_P1;SDS_P2;PMS_P1;PMS_P2;Temp;Humidity;BMP_temperature;BMP_pressure;BME280_temperature;BME280_humidity;BME280_pressure;Samples;Min_cycle;Max_cycle;Signal;HPM_P1;HPM_P2
2023/07/11 00:01:09;;;;;;;6.88;5.32;;;22.40;99.90;;;;;;5018865;28;20266;-74
2023/07/11 00:03:34;;;;;;;6.50;5.70;;;22.40;99.90;;;;;;5031506;28;20724;-74
2023/07/11 00:06:02;;;;;;;8.80;5.20;;;22.40;99.90;;;;;;5025552;28;20228;-74
2023/07/11 00:08:27;;;;;;;5.78;5.07;;;22.40;99.90;;;;;;5022068;28;20250;-75
2023/07/11 00:10:54;;;;;;;7.13;5.10;;;22.40;99.90;;;;;;5026558;28;20237;-75
2023/07/11 00:13:19;;;;;;;9.57;5.60;;;22.40;99.90;;;;;;5019748;28;20220;-74
2023/07/11 00:15:59;;;;;;;8.95;5.38;;;22.40;99.90;;;;;;5023260;28;20277;-74
2023/07/11 00:18:24;;;;;;;6.35;5.05;;;22.40;99.90;;;;;;5020717;28;20212;-74
2023/07/11 00:20:50;;;;;;;5.93;5.28;;;22.40;99.90;;;;;;5021457;28;20204;-74
2023/07/11 00:23:16;;;;;;;8.05;5.43;;;22.40;99.90;;;;;;5025427;28;20259;-74
2023/07/11 00:25:41;;;;;;;6.60;5.57;;;22.40;99.90;;;;;;5018545;28;20228;-74
2023/07/11 00:28:07;;;;;;;7.88;5.22;;;22.30;99.90;;;;;;5021432;28;20278;-74
2023/07/11 00:30:32;;;;;;;5.45;4.90;;;22.20;99.90;;;;;;5021115;28;20235;-74
2023/07/11 00:32:58;;;;;;;5.82;4.55;;;22.20;99.90;;;;;;5023420;28;20209;-74
2023/07/11 00:35:24;;;;;;;10.93;5.22;;;22.20;99.90;;;;;;5025047;28;20201;-74
2023/07/11 00:37:49;;;;;;;6.70;5.22;;;22.20;99.90;;;;;;5026671;28;20208;-74
2023/07/11 00:40:15;;;;;;;6.93;5.47;;;22.20;99.90;;;;;;5021338;28;20205;-74
2023/07/11 00:42:41;;;;;;;10.68;5.55;;;22.10;99.90;;;;;;5025264;28;20201;-74
2023/07/11 00:45:45;;;;;;;6.40;5.25;;;22.10;99.90;;;;;;5019200;28;20236;-74
2023/07/11 00:48:11;;;;;;;6.97;5.22;;;22.00;99.90;;;;;;5019355;28;20208;-74
2023/07/11 00:50:37;;;;;;;8.48;5.60;;;22.10;99.90;;;;;;5017448;28;20308;-74
2023/07/11 00:53:03;;;;;;;7.22;4.55;;;22.10;99.90;;;;;;5021531;28;20235;-74
2023/07/11 00:55:29;;;;;;;6.20;5.25;;;22.00;99.90;;;;;;5022267;28;20232;-74
2023/07/11 00:57:54;;;;;;;7.60;5.40;;;22.00;99.90;;;;;;5025603;28;20212;-74
2023/07/11 01:00:20;;;;;;;6.45;5.32;;;22.00;99.90;;;;;;5017660;28;20691;-74
2023/07/11 01:02:45;;;;;;;7.03;5.90;;;22.00;99.90;;;;;;5026150;28;20564;-74
2023/07/11 01:05:11;;;;;;;5.47;4.90;;;22.00;99.90;;;;;;5024181;28;20531;-74
2023/07/11 01:07:37;;;;;;;6.85;5.05;;;21.90;99.90;;;;;;5020808;28;20188;-74
2023/07/11 01:10:04;;;;;;;9.77;5.47;;;21.90;99.90;;;;;;5025164;28;20216;-74
2023/07/11 01:12:30;;;;;;;6.55;4.95;;;21.80;99.90;;;;;;5034496;28;20761;-74
2023/07/11 01:14:56;;;;;;;6.25;5.18;;;21.80;99.90;;;;;;5023132;28;20232;-74
2023/07/11 01:17:24;;;;;;;6.82;5.40;;;21.80;99.90;;;;;;5023441;28;20267;-74
2023/07/11 01:19:51;;;;;;;5.80;5.15;;;21.80;99.90;;;;;;5022708;28;20199;-74
2023/07/11 01:22:17;;;;;;;6.38;5.68;;;21.80;99.90;;;;;;5021265;28;20209;-74
2023/07/11 01:24:43;;;;;;;7.32;5.15;;;21.70;99.90;;;;;;5023595;28;20274;-75
2023/07/11 01:27:08;;;;;;;6.03;5.25;;;21.80;99.90;;;;;;5019965;28;20208;-75
2023/07/11 01:29:34;;;;;;;5.82;5.22;;;21.70;99.90;;;;;;5033661;28;20756;-74
2023/07/11 01:31:59;;;;;;;6.78;5.25;;;21.70;99.90;;;;;;5021014;28;20556;-75
2023/07/11 01:34:26;;;;;;;6.35;5.05;;;21.60;99.90;;;;;;5018524;28;20725;-75
2023/07/11 01:36:51;;;;;;;5.43;4.90;;;21.70;99.90;;;;;;5019856;28;20243;-75
2023/07/11 01:39:17;;;;;;;6.80;5.45;;;21.60;99.90;;;;;;5019765;28;20621;-75
2023/07/11 01:41:43;;;;;;;6.63;4.95;;;21.60;99.90;;;;;;5020518;28;20239;-75
2023/07/11 01:44:11;;;;;;;7.43;4.72;;;21.60;99.90;;;;;;5026069;28;20318;-75
2023/07/11 01:46:36;;;;;;;5.68;4.72;;;21.50;99.90;;;;;;5017980;28;20197;-75
2023/07/11 01:49:02;;;;;;;6.45;5.30;;;21.40;99.90;;;;;;5022957;28;20218;-75
2023/07/11 01:51:28;;;;;;;8.95;5.47;;;21.40;99.90;;;;;;5022327;28;20340;-75
2023/07/11 01:53:54;;;;;;;5.80;5.20;;;21.40;99.90;;;;;;5022937;28;20302;-74
2023/07/11 01:56:20;;;;;;;9.43;4.97;;;21.30;99.90;;;;;;5029173;28;20594;-73
2023/07/11 01:58:46;;;;;;;5.78;4.90;;;21.30;99.90;;;;;;5022817;28;20185;-74
2023/07/11 02:01:11;;;;;;;6.55;5.78;;;21.30;99.90;;;;;;5019151;28;20200;-74
2023/07/11 02:03:37;;;;;;;7.93;6.00;;;21.30;99.90;;;;;;5019139;28;20216;-73
2023/07/11 02:06:03;;;;;;;6.72;5.15;;;21.30;99.90;;;;;;5019980;28;20606;-73
2023/07/11 02:08:28;;;;;;;8.73;5.45;;;21.30;99.90;;;;;;5033614;28;20619;-74
2023/07/11 02:10:54;;;;;;;5.32;4.50;;;21.30;99.90;;;;;;5023237;28;20560;-74
2023/07/11 02:13:20;;;;;;;6.90;5.10;;;21.30;99.90;;;;;;5016372;28;20220;-73
2023/07/11 02:15:45;;;;;;;7.55;5.80;;;21.30;99.90;;;;;;5016403;28;20810;-73
2023/07/11 02:18:11;;;;;;;8.38;5.78;;;21.20;99.90;;;;;;5022804;28;20594;-74
2023/07/11 02:20:43;;;;;;;6.57;5.05;;;21.20;99.90;;;;;;5023059;28;20240;-73
2023/07/11 02:23:09;;;;;;;5.95;5.15;;;21.20;99.90;;;;;;5024485;28;20180;-74
2023/07/11 02:25:36;;;;;;;7.53;5.80;;;21.30;99.90;;;;;;5023109;28;20201;-74
2023/07/11 02:28:02;;;;;;;6.53;5.32;;;21.30;99.90;;;;;;5024944;28;20215;-73
2023/07/11 02:30:27;;;;;;;5.72;5.13;;;21.10;99.90;;;;;;5021848;28;20236;-74
2023/07/11 02:32:53;;;;;;;7.10;5.43;;;21.20;99.90;;;;;;5024782;28;20236;-73
2023/07/11 02:35:18;;;;;;;7.00;5.78;;;21.20;99.90;;;;;;5023504;28;20198;-73
2023/07/11 02:37:44;;;;;;;9.70;5.38;;;21.20;99.90;;;;;;5023967;28;20563;-73
2023/07/11 02:40:10;;;;;;;8.10;5.50;;;21.20;99.90;;;;;;5025063;28;20216;-73
2023/07/11 02:42:35;;;;;;;7.05;5.28;;;21.30;99.90;;;;;;5023071;28;20204;-73
2023/07/11 02:45:01;;;;;;;7.25;5.75;;;21.20;99.90;;;;;;5029014;28;20291;-74
2023/07/11 02:47:26;;;;;;;8.13;5.65;;;21.10;99.90;;;;;;5020750;28;20202;-73
2023/07/11 02:49:52;;;;;;;6.35;5.75;;;21.10;99.90;;;;;;5023777;28;20184;-74
2023/07/11 02:52:18;;;;;;;6.80;5.57;;;21.10;99.90;;;;;;5018919;28;20242;-73
2023/07/11 02:54:43;;;;;;;8.07;5.63;;;21.10;99.90;;;;;;5016391;28;20710;-73
2023/07/11 02:57:11;;;;;;;7.93;6.00;;;21.00;99.90;;;;;;5020586;28;20660;-73
2023/07/11 02:59:37;;;;;;;7.70;5.68;;;21.00;99.90;;;;;;5025050;28;20216;-73
2023/07/11 03:02:03;;;;;;;6.45;4.97;;;21.10;99.90;;;;;;5029874;28;20259;-74
2023/07/11 03:04:30;;;;;;;7.45;6.07;;;21.10;99.90;;;;;;5024395;28;20644;-73
2023/07/11 03:06:56;;;;;;;9.00;5.28;;;21.20;99.90;;;;;;5028169;28;20721;-73
2023/07/11 03:09:23;;;;;;;6.65;5.57;;;21.20;99.90;;;;;;5021669;28;20251;-73
2023/07/11 03:11:49;;;;;;;8.52;5.97;;;21.20;99.90;;;;;;5022948;28;20201;-74
2023/07/11 03:14:15;;;;;;;6.97;5.55;;;21.30;99.90;;;;;;5028596;28;20172;-74
2023/07/11 03:16:42;;;;;;;8.25;6.07;;;21.30;99.90;;;;;;5022809;28;20213;-73
2023/07/11 03:19:08;;;;;;;11.50;6.70;;;21.40;99.90;;;;;;5044364;22;20642;-72
2023/07/11 03:21:34;;;;;;;7.95;5.85;;;21.40;99.90;;;;;;5019174;28;20209;-72
2023/07/11 03:23:59;;;;;;;7.93;5.97;;;21.40;99.90;;;;;;5017333;28;20216;-70
2023/07/11 03:26:25;;;;;;;9.82;5.95;;;21.50;99.90;;;;;;5022322;28;20187;-70
2023/07/11 03:28:51;;;;;;;7.45;5.63;;;21.50;99.90;;;;;;5022297;28;20742;-70
2023/07/11 03:31:16;;;;;;;6.45;5.43;;;21.50;99.90;;;;;;5011744;28;20743;-71
2023/07/11 03:33:42;;;;;;;8.85;6.30;;;21.60;99.90;;;;;;4998448;28;20228;-70
2023/07/11 03:36:08;;;;;;;6.15;5.20;;;21.70;99.90;;;;;;5008099;28;20216;-71
2023/07/11 03:38:35;;;;;;;6.95;5.32;;;22.20;99.90;;;;;;5000194;28;20213;-70
2023/07/11 03:41:00;;;;;;;6.80;5.05;;;23.20;99.90;;;;;;5006077;28;20182;-70
2023/07/11 03:43:26;;;;;;;6.80;5.18;;;24.10;99.90;;;;;;5007515;28;20220;-69
2023/07/11 03:45:52;;;;;;;6.93;5.07;;;24.60;99.90;;;;;;5006877;28;20733;-70
2023/07/11 03:48:18;;;;;;;7.82;5.00;;;25.10;99.90;;;;;;5006520;28;20698;-71
2023/07/11 03:50:44;;;;;;;5.50;4.93;;;25.80;99.90;;;;;;5008644;28;20252;-70
2023/07/11 03:53:09;;;;;;;6.43;4.72;;;26.20;99.90;;;;;;5008837;28;20185;-70
2023/07/11 03:55:35;;;;;;;4.90;4.38;;;25.80;99.90;;;;;;5006401;28;20181;-70
2023/07/11 03:58:00;;;;;;;5.72;4.60;;;25.90;99.90;;;;;;5005750;28;20209;-71
2023/07/11 04:00:26;;;;;;;6.30;4.28;;;25.90;99.90;;;;;;5008547;28;20224;-71
2023/07/11 04:02:52;;;;;;;6.22;4.63;;;26.20;99.90;;;;;;5009648;28;20236;-71
2023/07/11 04:05:17;;;;;;;7.00;4.65;;;26.70;99.90;;;;;;5006428;28;20170;-71
2023/07/11 04:07:43;;;;;;;5.78;4.35;;;27.10;99.90;;;;;;5000893;28;20239;-71
2023/07/11 04:10:12;;;;;;;5.13;3.78;;;28.10;99.90;;;;;;4999960;28;20272;-71
2023/07/11 04:12:38;;;;;;;5.07;3.97;;;28.50;99.90;;;;;;5001827;28;20213;-70
2023/07/11 04:15:05;;;;;;;5.60;4.15;;;29.00;99.90;;;;;;5005484;28;20215;-70
2023/07/11 04:17:31;;;;;;;4.88;4.03;;;29.20;99.90;;;;;;5006158;28;20225;-69
2023/07/11 04:19:56;;;;;;;5.68;4.35;;;29.70;99.90;;;;;;5003525;28;20228;-71
2023/07/11 04:22:22;;;;;;;6.88;4.60;;;29.70;99.90;;;;;;5005715;28;20212;-70
2023/07/11 04:24:48;;;;;;;7.28;4.53;;;29.60;99.90;;;;;;5004015;28;20209;-71
2023/07/11 04:27:13;;;;;;;7.43;4.60;;;30.10;99.90;;;;;;5006780;28;20219;-70
2023/07/11 04:29:39;;;;;;;5.32;4.22;;;30.60;99.90;;;;;;5006257;28;20216;-72
2023/07/11 04:32:06;;;;;;;5.13;4.22;;;31.30;99.90;;;;;;5009353;28;20185;-71
2023/07/11 04:34:32;;;;;;;5.78;4.70;;;32.50;99.90;;;;;;5007466;28;20237;-71
2023/07/11 04:36:57;;;;;;;4.22;3.83;;;32.30;99.90;;;;;;5008042;28;20271;-70
2023/07/11 04:39:23;;;;;;;5.35;3.65;;;32.10;99.90;;;;;;5009195;28;20598;-72
2023/07/11 04:41:49;;;;;;;6.55;3.17;;;32.10;99.90;;;;;;5007028;28;20213;-69
2023/07/11 04:44:15;;;;;;;4.75;3.50;;;32.50;99.90;;;;;;5000464;28;20664;-69
2023/07/11 04:46:41;;;;;;;4.18;2.97;;;33.30;99.90;;;;;;5005287;28;20184;-70
2023/07/11 04:49:06;;;;;;;5.25;2.63;;;33.10;99.90;;;;;;5000450;28;20205;-70
2023/07/11 04:51:32;;;;;;;2.72;2.47;;;32.90;99.90;;;;;;5005647;28;20295;-70
2023/07/11 04:53:58;;;;;;;6.32;3.03;;;32.90;99.90;;;;;;5005195;28;20216;-70
2023/07/11 04:56:23;;;;;;;4.72;2.83;;;31.60;99.90;;;;;;5003772;28;20702;-69
2023/07/11 04:58:49;;;;;;;4.63;2.42;;;30.70;99.90;;;;;;5006888;28;20196;-70
2023/07/11 05:01:16;;;;;;;6.30;2.95;;;31.40;99.90;;;;;;5005251;28;20330;-71
2023/07/11 05:03:44;;;;;;;8.95;5.82;;;31.20;99.90;;;;;;5009308;28;20200;-70
2023/07/11 05:06:12;;;;;;;3.35;2.50;;;31.80;99.90;;;;;;5009806;28;20201;-70
2023/07/11 05:08:38;;;;;;;3.03;2.10;;;32.60;99.90;;;;;;5005812;28;20226;-70
2023/07/11 05:11:07;;;;;;;4.78;2.50;;;32.50;99.90;;;;;;5007583;28;20181;-70
2023/07/11 05:13:34;;;;;;;5.10;2.33;;;32.40;99.90;;;;;;5008304;28;20205;-70
2023/07/11 05:16:00;;;;;;;3.58;2.25;;;32.20;99.90;;;;;;5007758;28;20231;-71
2023/07/11 05:18:26;;;;;;;4.05;2.95;;;32.60;99.90;;;;;;5008923;28;20200;-71
2023/07/11 05:20:56;;;;;;;3.83;3.10;;;33.30;99.90;;;;;;5003128;28;20227;-71
2023/07/11 05:23:28;;;;;;;4.40;3.72;;;33.00;99.90;;;;;;5006628;28;20227;-71
2023/07/11 05:25:57;;;;;;;4.10;3.20;;;33.00;99.90;;;;;;5000700;28;20263;-70
2023/07/11 05:28:25;;;;;;;5.00;3.08;;;33.30;99.90;;;;;;5004308;28;20204;-71
2023/07/11 05:30:51;;;;;;;3.88;3.03;;;32.90;99.90;;;;;;5001552;28;20580;-72
2023/07/11 05:33:17;;;;;;;4.80;3.22;;;33.30;99.90;;;;;;5003302;28;20205;-70
2023/07/11 05:36:05;;;;;;;5.28;3.65;;;34.30;99.90;;;;;;5004353;28;20784;-70
2023/07/11 05:38:31;;;;;;;5.43;4.18;;;33.90;99.90;;;;;;5002155;28;20765;-70
2023/07/11 05:40:57;;;;;;;5.18;3.95;;;33.70;99.90;;;;;;5005480;28;20184;-70
2023/07/11 05:43:22;;;;;;;5.80;3.35;;;33.70;99.90;;;;;;5002748;28;20644;-71
2023/07/11 05:45:48;;;;;;;4.57;3.47;;;34.40;99.90;;;;;;5005078;28;20847;-70
2023/07/11 05:48:14;;;;;;;4.50;3.60;;;33.10;99.90;;;;;;5006712;28;20227;-70
2023/07/11 05:50:39;;;;;;;5.78;4.38;;;32.30;99.90;;;;;;4996459;28;20221;-71
2023/07/11 05:53:05;;;;;;;4.82;3.50;;;32.30;99.90;;;;;;5007719;28;20191;-71
2023/07/11 05:55:30;;;;;;;4.95;3.92;;;31.60;99.90;;;;;;5007020;28;20865;-70
2023/07/11 05:57:56;;;;;;;5.65;3.83;;;32.20;99.90;;;;;;4998023;28;20212;-70
2023/07/11 06:00:22;;;;;;;4.10;3.58;;;33.20;99.90;;;;;;5000250;28;20204;-71
2023/07/11 06:02:47;;;;;;;4.15;3.75;;;33.20;99.90;;;;;;5000830;28;20615;-71
2023/07/11 06:05:13;;;;;;;4.47;4.00;;;31.80;99.90;;;;;;5000284;28;20173;-71
2023/07/11 06:07:39;;;;;;;3.40;3.00;;;31.20;99.90;;;;;;5001520;28;20594;-71
2023/07/11 06:10:06;;;;;;;4.57;3.28;;;32.30;99.90;;;;;;5002596;28;20298;-71
2023/07/11 06:12:31;;;;;;;4.32;3.33;;;33.20;99.90;;;;;;5007536;28;20208;-72
2023/07/11 06:14:57;;;;;;;4.57;2.90;;;34.50;99.90;;;;;;5002825;28;20220;-72
2023/07/11 06:17:23;;;;;;;3.47;3.08;;;35.40;99.90;;;;;;5005306;28;20258;-71
2023/07/11 06:19:48;;;;;;;3.50;2.72;;;35.50;99.40;;;;;;5002162;28;20212;-72
2023/07/11 06:22:14;;;;;;;4.85;3.80;;;35.60;98.80;;;;;;5005911;28;20196;-72
2023/07/11 06:24:40;;;;;;;4.10;2.90;;;35.60;97.70;;;;;;5006757;28;20211;-71
2023/07/11 06:27:05;;;;;;;3.88;3.10;;;35.20;97.40;;;;;;5006246;28;20698;-71
2023/07/11 06:29:31;;;;;;;3.35;2.50;;;33.90;98.80;;;;;;5007566;28;20271;-72
2023/07/11 06:31:57;;;;;;;5.35;2.75;;;34.70;98.00;;;;;;5005425;28;20176;-72
2023/07/11 06:34:23;;;;;;;5.78;2.90;;;34.90;97.00;;;;;;4998671;28;20729;-71
2023/07/11 06:36:49;;;;;;;2.90;2.50;;;35.30;96.30;;;;;;5000124;28;20248;-71
2023/07/11 06:39:15;;;;;;;3.50;2.60;;;35.90;95.20;;;;;;5003825;28;20287;-71
2023/07/11 06:41:40;;;;;;;3.58;2.92;;;35.40;94.20;;;;;;5001975;28;20239;-70
2023/07/11 06:44:08;;;;;;;3.28;2.55;;;35.20;94.90;;;;;;5003906;28;20188;-70
2023/07/11 06:46:34;;;;;;;4.15;2.90;;;34.00;95.30;;;;;;5005096;28;20207;-70
2023/07/11 06:49:00;;;;;;;3.78;2.80;;;34.70;95.80;;;;;;5003232;28;20219;-70
2023/07/11 06:51:26;;;;;;;5.00;2.50;;;34.60;95.20;;;;;;5000144;28;20208;-69
2023/07/11 06:53:52;;;;;;;3.80;2.35;;;34.50;95.60;;;;;;5003651;28;20270;-70
2023/07/11 06:56:18;;;;;;;6.10;3.58;;;34.00;95.40;;;;;;5004773;28;20204;-71
2023/07/11 06:58:44;;;;;;;3.67;2.72;;;34.60;95.20;;;;;;5005734;28;20208;-70
2023/07/11 07:01:11;;;;;;;3.60;2.40;;;34.60;95.40;;;;;;5006664;28;20197;-71
2023/07/11 07:03:36;;;;;;;2.92;2.60;;;35.60;93.80;;;;;;5006752;28;20714;-71
2023/07/11 07:06:05;;;;;;;3.70;2.85;;;34.50;94.00;;;;;;5006613;28;20232;-71
2023/07/11 07:08:32;;;;;;;4.38;2.65;;;35.30;93.80;;;;;;5005476;28;20208;-71
2023/07/11 07:10:57;;;;;;;3.50;2.60;;;34.90;93.60;;;;;;4998438;28;20195;-71
2023/07/11 07:13:24;;;;;;;3.75;2.38;;;36.00;92.80;;;;;;4997702;28;20593;-72
2023/07/11 07:15:56;;;;;;;4.07;2.55;;;36.80;91.80;;;;;;5000339;28;20231;-71
2023/07/11 07:18:22;;;;;;;5.07;2.63;;;37.40;91.00;;;;;;5005275;28;20214;-71
2023/07/11 07:20:50;;;;;;;3.10;2.55;;;37.70;89.80;;;;;;5003651;28;20583;-71
2023/07/11 07:23:16;;;;;;;3.25;2.38;;;38.10;86.90;;;;;;5004019;28;20640;-72
2023/07/11 07:25:50;;;;;;;3.60;2.38;;;36.90;87.10;;;;;;5005588;28;20187;-71
2023/07/11 07:28:15;;;;;;;3.05;2.50;;;37.00;87.80;;;;;;5006985;28;20209;-72
2023/07/11 07:30:51;;;;;;;4.20;2.25;;;37.40;85.60;;;;;;5006004;28;20208;-72
2023/07/11 07:33:17;;;;;;;2.92;2.30;;;37.90;84.90;;;;;;5007068;28;20204;-71
2023/07/11 07:35:44;;;;;;;2.97;2.20;;;38.30;83.70;;;;;;5008626;28;20216;-72
2023/07/11 07:38:11;;;;;;;4.25;2.30;;;39.30;81.30;;;;;;5006972;28;20189;-72
2023/07/11 07:40:37;;;;;;;3.83;2.40;;;39.00;80.80;;;;;;5010162;28;20192;-71
2023/07/11 07:43:03;;;;;;;3.72;2.38;;;39.00;79.30;;;;;;5010337;28;20255;-72
2023/07/11 07:45:29;;;;;;;2.92;1.83;;;38.30;77.30;;;;;;5009278;28;20207;-71
2023/07/11 07:47:54;;;;;;;2.30;2.10;;;37.80;79.70;;;;;;5004556;28;20212;-72
2023/07/11 07:50:21;;;;;;;1.90;1.80;;;37.20;78.30;;;;;;5003175;28;20314;-72
2023/07/11 07:52:46;;;;;;;3.20;2.00;;;36.30;79.70;;;;;;5011095;28;20189;-71
2023/07/11 07:55:12;;;;;;;2.58;1.83;;;36.20;80.70;;;;;;5006248;28;20235;-71
2023/07/11 07:57:38;;;;;;;4.10;2.03;;;35.80;79.70;;;;;;5000909;28;20215;-70
2023/07/11 08:00:05;;;;;;;2.30;2.10;;;36.70;80.00;;;;;;5000481;28;20646;-71
2023/07/11 08:02:32;;;;;;;4.38;2.00;;;35.90;80.60;;;;;;5005567;28;20216;-71
2023/07/11 08:04:58;;;;;;;3.67;2.15;;;37.10;80.80;;;;;;5010133;28;20177;-72
2023/07/11 08:07:25;;;;;;;4.43;2.30;;;36.80;76.20;;;;;;5006123;28;20209;-70
2023/07/11 08:09:52;;;;;;;3.85;1.92;;;36.30;78.20;;;;;;5008680;28;20243;-70
2023/07/11 08:12:18;;;;;;;2.88;2.17;;;36.90;78.30;;;;;;5005769;28;20201;-71
2023/07/11 08:14:44;;;;;;;5.57;2.08;;;37.50;76.80;;;;;;5008582;28;20224;-73
2023/07/11 08:17:10;;;;;;;3.15;1.83;;;37.40;76.50;;;;;;5007525;28;20208;-72
2023/07/11 08:19:36;;;;;;;2.85;1.83;;;36.90;75.10;;;;;;5009428;28;20208;-70
2023/07/11 08:22:02;;;;;;;3.10;2.03;;;36.60;75.00;;;;;;5008413;28;20884;-70
2023/07/11 08:24:28;;;;;;;2.05;1.65;;;36.10;74.90;;;;;;4999771;28;20205;-71
2023/07/11 08:26:54;;;;;;;3.17;2.00;;;36.30;74.70;;;;;;5002811;28;20216;-71
2023/07/11 08:29:19;;;;;;;3.13;2.10;;;36.30;73.60;;;;;;5006883;28;20200;-70
2023/07/11 08:31:45;;;;;;;3.75;1.73;;;35.70;73.30;;;;;;5007927;28;20669;-72
2023/07/11 08:34:11;;;;;;;4.80;2.33;;;35.90;73.00;;;;;;5007587;28;20212;-71
2023/07/11 08:36:40;;;;;;;2.75;1.85;;;35.10;73.00;;;;;;5004428;28;20574;-70
2023/07/11 08:39:06;;;;;;;3.22;1.80;;;35.10;75.00;;;;;;4997356;28;20217;-71
2023/07/11 08:41:45;;;;;;;2.10;1.90;;;35.20;75.80;;;;;;5005089;28;20214;-72
2023/07/11 08:44:32;;;;;;;2.92;2.50;;;36.10;73.80;;;;;;5000643;28;20192;-72
2023/07/11 08:47:06;;;;;;;4.38;2.28;;;36.70;72.10;;;;;;5006551;28;20271;-72
2023/07/11 08:49:56;;;;;;;4.15;2.28;;;36.10;71.00;;;;;;5003156;28;20640;-72
2023/07/11 08:52:25;;;;;;;5.72;1.95;;;35.30;72.30;;;;;;5007037;28;20205;-71
2023/07/11 08:54:52;;;;;;;5.80;1.85;;;34.70;72.70;;;;;;5006968;28;20278;-71
2023/07/11 08:57:22;;;;;;;3.00;2.17;;;35.80;72.20;;;;;;5008094;28;20212;-71
2023/07/11 09:00:07;;;;;;;4.28;2.05;;;35.10;71.90;;;;;;5007734;28;20323;-71
2023/07/11 09:02:54;;;;;;;3.45;1.90;;;34.90;73.60;;;;;;5003498;28;20220;-71
2023/07/11 09:05:41;;;;;;;5.03;1.75;;;35.10;70.20;;;;;;5016678;28;20271;-71
2023/07/11 09:08:16;;;;;;;3.70;2.25;;;35.50;69.60;;;;;;5001314;28;20267;-72
2023/07/11 09:11:08;;;;;;;7.38;4.28;;;36.10;69.70;;;;;;5003667;28;20196;-71
2023/07/11 09:13:52;;;;;;;7.50;4.35;;;36.70;68.10;;;;;;5003331;28;20205;-71
2023/07/11 09:16:39;;;;;;;3.10;1.88;;;37.40;68.30;;;;;;5001507;28;20220;-71
2023/07/11 09:19:30;;;;;;;3.20;1.98;;;36.80;68.30;;;;;;5002316;28;20263;-71
2023/07/11 09:22:24;;;;;;;2.72;1.60;;;35.80;69.50;;;;;;5035532;23;20243;-74
2023/07/11 09:25:18;;;;;;;2.35;2.00;;;34.50;71.30;;;;;;5025206;28;20694;-74
2023/07/11 09:28:11;;;;;;;10.15;6.68;;;35.00;72.70;;;;;;5018345;28;20227;-74
2023/07/11 09:30:42;;;;;;;5.32;2.60;;;35.80;71.50;;;;;;5009881;28;20308;-74
2023/07/11 09:33:13;;;;;;;5.95;3.45;;;36.10;71.00;;;;;;5003839;28;20749;-74
2023/07/11 09:35:41;;;;;;;4.25;1.92;;;36.40;70.90;;;;;;5001176;28;20213;-74
2023/07/11 09:38:13;;;;;;;6.05;2.20;;;36.40;70.80;;;;;;5003781;28;20251;-75
2023/07/11 09:40:51;;;;;;;3.35;2.05;;;36.70;71.30;;;;;;4996008;28;20204;-74
2023/07/11 09:43:17;;;;;;;3.00;1.90;;;36.40;70.60;;;;;;4993204;28;20305;-74
2023/07/11 09:45:44;;;;;;;5.68;2.42;;;35.80;72.20;;;;;;5007804;28;20295;-74
2023/07/11 09:48:10;;;;;;;3.33;2.15;;;35.40;72.70;;;;;;5016789;28;20209;-74
2023/07/11 09:51:01;;;;;;;3.50;1.83;;;34.80;73.70;;;;;;5007660;28;20765;-74
2023/07/11 09:53:29;;;;;;;3.38;1.92;;;35.00;75.10;;;;;;4997974;28;20196;-74
2023/07/11 09:55:59;;;;;;;3.03;1.95;;;34.20;74.70;;;;;;5003180;28;20600;-76
2023/07/11 09:58:29;;;;;;;3.28;1.95;;;34.30;75.20;;;;;;5001187;28;20205;-74
2023/07/11 10:01:00;;;;;;;2.92;1.83;;;33.70;75.00;;;;;;5003410;28;20209;-74
2023/07/11 10:03:27;;;;;;;3.25;2.20;;;32.70;76.30;;;;;;5002472;28;20578;-74
2023/07/11 10:05:54;;;;;;;2.72;1.88;;;33.10;77.70;;;;;;4999969;28;20214;-74
2023/07/11 10:08:48;;;;;;;4.55;1.90;;;33.80;76.70;;;;;;4999464;28;20198;-75
2023/07/11 10:11:14;;;;;;;4.35;2.35;;;32.10;78.00;;;;;;4998101;28;20209;-74
2023/07/11 10:13:45;;;;;;;8.35;2.75;;;30.80;81.00;;;;;;5002560;28;20260;-74
2023/07/11 10:16:17;;;;;;;3.72;2.25;;;30.40;83.10;;;;;;5000334;28;20214;-73
2023/07/11 10:18:44;;;;;;;4.00;2.15;;;30.80;82.30;;;;;;4995849;28;20687;-73
2023/07/11 10:21:17;;;;;;;5.80;2.20;;;30.70;83.80;;;;;;5000024;28;20228;-73
2023/07/11 10:23:48;;;;;;;3.88;2.25;;;30.30;84.90;;;;;;4993956;28;20250;-74
2023/07/11 10:26:26;;;;;;;3.45;1.77;;;30.00;85.70;;;;;;4996787;28;20185;-74
2023/07/11 10:29:07;;;;;;;3.47;1.90;;;29.90;85.80;;;;;;4994350;28;20174;-73
2023/07/11 10:31:39;;;;;;;4.18;2.40;;;30.80;86.80;;;;;;5002591;28;20737;-73
2023/07/11 10:34:15;;;;;;;5.63;2.42;;;30.90;84.60;;;;;;5002468;28;20244;-74
2023/07/11 10:36:48;;;;;;;3.00;1.88;;;30.80;84.80;;;;;;5004925;28;20208;-73
2023/07/11 10:39:36;;;;;;;5.13;3.35;;;30.90;82.80;;;;;;4997504;28;20216;-75
2023/07/11 10:42:08;;;;;;;4.15;2.10;;;30.60;82.90;;;;;;4997780;28;20268;-73
2023/07/11 10:44:41;;;;;;;3.60;2.28;;;31.20;81.60;;;;;;5003507;28;20262;-75
2023/07/11 10:47:09;;;;;;;6.97;3.42;;;31.30;80.90;;;;;;5001526;28;20549;-75
2023/07/11 10:49:37;;;;;;;5.82;2.35;;;31.50;79.40;;;;;;5000662;28;20229;-73
2023/07/11 10:52:19;;;;;;;6.70;2.70;;;31.40;80.20;;;;;;4997678;28;20218;-74
2023/07/11 10:54:51;;;;;;;2.78;1.98;;;31.70;81.20;;;;;;5005081;28;20273;-73
2023/07/11 10:57:42;;;;;;;6.55;2.70;;;31.60;80.10;;;;;;5004073;28;20723;-74
2023/07/11 11:00:21;;;;;;;4.43;2.45;;;31.70;81.70;;;;;;5016144;28;20221;-73
2023/07/11 11:03:02;;;;;;;3.08;2.17;;;31.90;82.30;;;;;;5000881;28;20220;-73
2023/07/11 11:05:52;;;;;;;2.40;1.83;;;31.70;81.90;;;;;;5002362;28;20239;-74
2023/07/11 11:08:41;;;;;;;3.72;2.20;;;31.40;81.30;;;;;;4999836;28;20546;-74
2023/07/11 11:11:34;;;;;;;4.43;2.88;;;31.10;83.00;;;;;;5001374;28;20680;-73
2023/07/11 11:14:32;;;;;;;3.63;2.35;;;31.20;83.20;;;;;;4998305;28;20233;-74
2023/07/11 11:17:04;;;;;;;6.03;2.22;;;30.40;83.90;;;;;;5003148;28;20312;-73
2023/07/11 11:19:29;;;;;;;2.65;2.10;;;30.40;85.90;;;;;;5004174;28;20220;-74
2023/07/11 11:22:06;;;;;;;3.25;2.00;;;30.70;85.20;;;;;;5001132;28;20213;-75
2023/07/11 11:24:58;;;;;;;4.35;2.38;;;30.90;84.10;;;;;;5003407;28;20268;-74
2023/07/11 11:27:46;;;;;;;4.45;2.33;;;31.20;84.30;;;;;;5008677;28;20205;-74
2023/07/11 11:30:28;;;;;;;2.88;2.25;;;30.90;83.60;;;;;;5004239;28;20714;-74
2023/07/11 11:33:17;;;;;;;4.18;2.40;;;30.50;83.90;;;;;;5005786;28;20615;-73
2023/07/11 11:35:45;;;;;;;2.92;2.38;;;30.00;84.70;;;;;;4995399;28;20222;-74
2023/07/11 11:38:24;;;;;;;3.30;2.05;;;30.00;84.00;;;;;;5003141;28;20227;-73
2023/07/11 11:40:55;;;;;;;2.90;2.50;;;30.10;84.90;;;;;;5001516;28;20202;-73
2023/07/11 11:43:24;;;;;;;4.53;2.63;;;29.90;84.70;;;;;;4996818;28;20209;-74
2023/07/11 11:45:50;;;;;;;3.13;2.35;;;29.70;85.50;;;;;;5005660;28;20209;-73
2023/07/11 11:48:22;;;;;;;5.78;2.72;;;30.20;87.70;;;;;;5003832;28;20793;-74
2023/07/11 11:50:49;;;;;;;2.58;2.17;;;30.80;86.60;;;;;;5006095;28;20719;-74
2023/07/11 11:53:17;;;;;;;4.65;2.55;;;31.00;85.50;;;;;;5005054;28;20268;-73
2023/07/11 11:55:55;;;;;;;5.95;3.90;;;31.20;84.20;;;;;;5007821;28;20180;-74
2023/07/11 11:58:21;;;;;;;4.93;2.92;;;31.10;84.80;;;;;;5006036;28;20651;-73
2023/07/11 12:00:50;;;;;;;4.20;3.80;;;30.80;85.00;;;;;;5002781;28;20237;-73
2023/07/11 12:03:28;;;;;;;4.28;2.72;;;30.60;85.90;;;;;;5005834;28;20291;-73
2023/07/11 12:05:56;;;;;;;4.60;2.60;;;30.60;86.80;;;;;;4997086;28;20206;-74
2023/07/11 12:08:24;;;;;;;4.70;2.97;;;30.00;87.80;;;;;;5017499;28;20218;-73
2023/07/11 12:11:08;;;;;;;4.55;2.90;;;30.30;87.20;;;;;;4997619;28;20197;-73
2023/07/11 12:13:36;;;;;;;4.10;2.35;;;30.10;87.10;;;;;;5008144;28;20271;-74
2023/07/11 12:16:32;;;;;;;4.22;2.58;;;30.30;86.90;;;;;;4999703;28;20274;-74
2023/07/11 12:18:59;;;;;;;4.88;2.90;;;30.10;85.10;;;;;;5003852;28;20221;-74
2023/07/11 12:21:56;;;;;;;3.53;2.47;;;30.30;86.90;;;;;;5001927;28;20593;-74
2023/07/11 12:24:36;;;;;;;3.42;2.92;;;30.30;86.50;;;;;;4997385;28;20213;-73
2023/07/11 12:27:25;;;;;;;4.57;2.50;;;30.70;85.40;;;;;;5001755;28;20220;-73
2023/07/11 12:29:53;;;;;;;3.60;2.78;;;30.00;84.00;;;;;;4997981;28;20281;-73
2023/07/11 12:32:30;;;;;;;3.67;2.65;;;30.00;85.30;;;;;;5004209;28;20225;-73
2023/07/11 12:35:02;;;;;;;4.22;2.72;;;30.00;85.90;;;;;;4999597;28;20269;-74
2023/07/11 12:37:31;;;;;;;3.45;2.15;;;30.00;86.40;;;;;;5001207;28;20252;-74
2023/07/11 12:40:20;;;;;;;4.72;2.92;;;29.70;86.60;;;;;;5005654;28;20271;-74
2023/07/11 12:42:53;;;;;;;3.58;2.22;;;29.70;87.40;;;;;;5004750;28;20208;-73
2023/07/11 12:45:22;;;;;;;3.90;2.60;;;29.90;87.10;;;;;;5001972;28;20209;-74
2023/07/11 12:47:52;;;;;;;6.72;4.80;;;29.90;87.00;;;;;;5005801;28;20213;-74
2023/07/11 12:50:26;;;;;;;3.05;2.70;;;30.00;87.70;;;;;;4998471;28;20268;-74
2023/07/11 12:53:03;;;;;;;7.07;2.97;;;29.90;87.20;;;;;;5005116;28;20195;-73
2023/07/11 12:55:30;;;;;;;4.15;2.70;;;29.90;87.30;;;;;;5002317;28;20205;-73
2023/07/11 12:57:57;;;;;;;4.20;2.50;;;29.60;87.60;;;;;;5001197;28;20229;-74